METAR - Ísland

Uppfært síðast 22.07.2019 - kl. 06:35

SIGMET síðustu 6 klst.

Engin SIGMET skeyti bárust síðustu 6 klst.

METAR síðustu 3 klst

Flugv.TímiSkeyti
BIAR2019-07-22 06.00METAR BIAR 220600Z 31003KT 280V340 9999 OVC029 11/08 Q1006 RMK WIND VADLAHEIDI 10004KT
BIAR2019-07-22 05.00METAR BIAR 220500Z 36005KT 9999 -DZ BKN033 OVC038 12/07 Q1006 RMK WIND VADLAHEIDI 10012KT
BIAR2019-07-22 04.00METAR BIAR 220400Z VRB04KT 9999 -RA SCT030 BKN033 12/07 Q1006 RMK WIND VADLAHEIDI 10012KT
BIEG2019-07-22 06.00METAR BIEG 220600Z 01010KT 9999 BKN004 OVC028 08/08 Q1004 RMK WIND GAGNHEIDI 06019KT
BIEG2019-07-22 05.00METAR BIEG 220500Z 36011KT 9999 OVC005 08/08 Q1004 RMK WIND GAGNHEIDI 06020KT
BIEG2019-07-22 04.00METAR BIEG 220400Z 01014KT 9999 OVC005 08/08 Q1005 RMK WIND GAGNHEIDI 07026KT
BIKF2019-07-22 06.30METAR BIKF 220630Z 04003KT CAVOK 12/11 Q1003
BIKF2019-07-22 06.00METAR BIKF 220600Z 02006KT CAVOK 12/11 Q1003
BIKF2019-07-22 05.30METAR BIKF 220530Z 04003KT 9999 FEW046 BKN075 12/11 Q1003
BIKF2019-07-22 05.00METAR BIKF 220500Z 04004KT 9999 FEW046 BKN075 12/11 Q1003
BIKF2019-07-22 04.30METAR BIKF 220430Z 02003KT CAVOK 11/11 Q1003
BIKF2019-07-22 04.00METAR BIKF 220400Z 02005KT CAVOK 11/11 Q1003
BIRK2019-07-22 06.00METAR BIRK 220600Z 20004KT 9999 SCT041 BKN060 13/10 Q1003
BIRK2019-07-22 05.00METAR BIRK 220500Z 15006KT 9999 FEW037 BKN043 OVC056 13/09 Q1003
BIRK2019-07-22 04.00METAR BIRK 220400Z 14003KT 9999 BKN049 13/10 Q1003
BIVM2019-07-22 06.22METAR BIVM 220622Z 13011KT 4000 RA FG OVC004 11/11 Q1003

Textaspár eru skrifaðar af vakthafandi veðurfræðingi á Veðurstofu Íslands.




Aðrir tengdir vefir



Þetta vefsvæði byggir á Eplica